Friday, July 20, 2018, 4:54 AM EDT
Back to Local

KGED, Georgetown Sussex Co Airport

Location: Georgetown, DE, United States Lat: 38.683
Local Time: 4:54 AM EDT ( 8:54 GMT) Lon: -75.367
Time Zone: US/Eastern Elev: 52 ft

Show me the last for .
Show Coded

Time T Td Feel RH Dir Speed Gust Alt SLP Vis Weather Sky Remarks
2018-07-20 03:54 62 60 - 93 - Calm - 30.12 30.11 10 CLR None
2018-07-20 02:54 62 61 - 96 - Calm - 30.12 30.12 10 None
2018-07-20 01:54 64 61 - 89 - Calm - 30.12 30.11 10 CLR 6-hr Min Temp (2am): 64.0°F
6-hr Max Temp (2am): 77.0°F
2018-07-20 00:54 65 61 - 87 - Calm - 30.13 30.13 10 CLR 24-hr Min Temp (1am): 64.9°F
24-hr Max Temp (1am): 86.0°F
2018-07-19 23:54 66 61 - 83 - - - 30.12 30.12 10 None
2018-07-19 22:54 67 61 - 81 130° 3 - 30.11 30.11 10 CLR None
2018-07-19 21:54 69 62 - 78 110° 3 - 30.11 30.11 10 CLR None
2018-07-19 20:54 70 62 - 76 130° 6 - 30.09 30.09 10 CLR None
2018-07-19 19:54 75 62 78 64 150° 5 - 30.08 30.08 10 CLR 6-hr Min Temp (8pm): 75.0°F
6-hr Max Temp (8pm): 86.0°F
2018-07-19 18:54 79 60 80 52 140° 9 - 30.07 30.07 10 CLR None
2018-07-19 17:54 83 53 - 35 40° 10 - 30.06 30.06 10 CLR None
2018-07-19 16:54 84 54 - 35 110° 8 - 30.07 30.07 10 CLR None
2018-07-19 15:54 86 55 - 34 60° 7 - 30.08 30.07 10 CLR None
2018-07-19 14:54 85 56 - 37 50° 10 - 30.08 30.08 10 CLR None
2018-07-19 13:54 85 56 - 37 30° 9 - 30.09 30.09 10 CLR 6-hr Min Temp (2pm): 73.0°F
6-hr Max Temp (2pm): 84.9°F
2018-07-19 12:54 84 54 - 35 40° 8 - 30.10 30.09 10 CLR None
2018-07-19 11:54 83 56 - 39 40° 8 16 30.10 30.10 10 CLR None
2018-07-19 10:54 81 57 81 44 60° 10 - 30.10 30.10 10 CLR None
2018-07-19 09:54 79 58 80 48 40° 9 - 30.09 30.09 10 CLR None
2018-07-19 08:54 77 62 79 60 30° 12 - 30.09 30.08 10 CLR None
2018-07-19 07:54 73 63 77 70 20° 5 - 30.07 30.06 10 CLR 6-hr Min Temp (8am): 66.9°F
6-hr Max Temp (8am): 73.0°F
2018-07-19 06:54 70 60 - 70 20° 5 - 30.05 30.05 10 CLR None
2018-07-19 05:54 69 61 - 75 360° 5 - 30.04 30.04 10 CLR None

Support USWX by starting your Amazon purchase here.